Observation data for Paducah on 04/24/2019      Previous  Date  Next       Current Mesonet Observations  Soil Data  Daily Summary Page  Observations in Plain Language
KPAD 240500Z 33007KT 13/12 A30 RMK A01 T01260115  RH  096%=      5-min Rain = 0
KPAD 240505Z 33007KT 13/12 A30 RMK A01 T01250115  RH  097%=      5-min Rain = 0
KPAD 240510Z 34008KT 13/11 A2999 RMK A01 T01250114  RH  097%=      5-min Rain = 0
KPAD 240515Z 34007KT 13/11 A2999 RMK A01 T01250114  RH  097%=      5-min Rain = 0
KPAD 240520Z 33005KT 13/11 A30 RMK A01 T01250114  RH  097%=      5-min Rain = 0
KPAD 240525Z 33004KT 13/11 A30 RMK A01 T01250114  RH  097%=      5-min Rain = 0
KPAD 240530Z 35004KT 12/11 A30 RMK A01 T01240114  RH  097%=      5-min Rain = 0
KPAD 240535Z 35004KT 12/11 A2999 RMK A01 T01240113  RH  097%=      5-min Rain = 0
KPAD 240540Z 34005KT 12/11 A2999 RMK A01 T01230112  RH  097%=      5-min Rain = 0
KPAD 240545Z 34003KT 12/11 A2999 RMK A01 T01220112  RH  097%=      5-min Rain = 0
KPAD 240550Z 33004KT 12/11 A2999 RMK A01 T01220112  RH  097%=      5-min Rain = 0
KPAD 240555Z 32005KT 12/11 A2999 RMK A01 T01220112  RH  097%=      5-min Rain = 0
KPAD 240600Z 32004KT 12/11 A2999 RMK A01 T01230113  RH  097%=      5-min Rain = 0
KPAD 240605Z 33004KT 12/11 A2999 RMK A01 T01230113  RH  097%=      5-min Rain = 0
KPAD 240610Z 33004KT 12/11 A2999 RMK A01 T01230113  RH  097%=      5-min Rain = 0
KPAD 240615Z 35004KT 12/11 A2998 RMK A01 T01220112  RH  097%=      5-min Rain = 0
KPAD 240620Z 36004KT 12/11 A2998 RMK A01 T01210111  RH  097%=      5-min Rain = 0
KPAD 240625Z 02003KT 12/11 A2998 RMK A01 T01200110  RH  097%=      5-min Rain = 0
KPAD 240630Z 03004KT 12/11 A2997 RMK A01 T01190109  RH  097%=      5-min Rain = 0
KPAD 240635Z 03004KT 12/11 A2998 RMK A01 T01190109  RH  097%=      5-min Rain = 0
KPAD 240640Z 02004KT 12/11 A2998 RMK A01 T01190109  RH  097%=      5-min Rain = 0
KPAD 240645Z 02006KT 12/11 A2997 RMK A01 T01180108  RH  097%=      5-min Rain = 0
KPAD 240650Z 01005KT 12/11 A2998 RMK A01 T01180108  RH  097%=      5-min Rain = 0
KPAD 240655Z 01006KT 12/11 A2998 RMK A01 T01180108  RH  097%=      5-min Rain = 0
KPAD 240700Z 01005KT 12/11 A2998 RMK A01 T01170108  RH  097%=      5-min Rain = 0
KPAD 240705Z 01004KT 12/11 A2999 RMK A01 T01170108  RH  097%=      5-min Rain = 0
KPAD 240710Z 01003KT 12/11 A2999 RMK A01 T01170108  RH  097%=      5-min Rain = 0
KPAD 240715Z 36004KT 12/11 A2999 RMK A01 T01170107  RH  097%=      5-min Rain = 0
KPAD 240720Z 35003KT 12/11 A2999 RMK A01 T01170107  RH  097%=      5-min Rain = 0
KPAD 240725Z 34003KT 12/11 A30 RMK A01 T01170108  RH  097%=      5-min Rain = 0
KPAD 240730Z 31003KT 12/11 A3001 RMK A01 T01170108  RH  097%=      5-min Rain = 0
KPAD 240735Z 33003KT 12/11 A3001 RMK A01 T01160107  RH  097%=      5-min Rain = 0
KPAD 240740Z 33003KT 12/11 A30 RMK A01 T01160107  RH  097%=      5-min Rain = 0
KPAD 240745Z 34004KT 12/11 A2999 RMK A01 T01150106  RH  097%=      5-min Rain = 0
KPAD 240750Z 34005KT 11/11 A2999 RMK A01 T01140105  RH  097%=      5-min Rain = 0
KPAD 240755Z 34004KT 11/10 A2999 RMK A01 T01130104  RH  097%=      5-min Rain = 0
KPAD 240800Z 33004KT 11/10 A2999 RMK A01 T01130104  RH  098%=      5-min Rain = 0
KPAD 240805Z 34005KT 11/10 A2998 RMK A01 T01120103  RH  098%=      5-min Rain = 0
KPAD 240810Z 35004KT 11/10 A2998 RMK A01 T01110102  RH  098%=      5-min Rain = 0
KPAD 240815Z 34004KT 11/10 A2998 RMK A01 T01110102  RH  098%=      5-min Rain = 0
KPAD 240820Z 35005KT 11/10 A2997 RMK A01 T01100102  RH  098%=      5-min Rain = 0
KPAD 240825Z 34005KT 11/10 A2997 RMK A01 T01100102  RH  098%=      5-min Rain = 0
KPAD 240830Z 33004KT 11/10 A2997 RMK A01 T01110103  RH  098%=      5-min Rain = 0
KPAD 240835Z 33004KT 11/10 A2997 RMK A01 T01110103  RH  098%=      5-min Rain = 0
KPAD 240840Z 34005KT 11/10 A2996 RMK A01 T01120104  RH  098%=      5-min Rain = 0
KPAD 240845Z 34006KT 11/11 A2996 RMK A01 T01120105  RH  098%=      5-min Rain = 0
KPAD 240850Z 34006KT 11/11 A2996 RMK A01 T01140106  RH  098%=      5-min Rain = 0
KPAD 240855Z 34005KT 11/11 A2996 RMK A01 T01140107  RH  098%=      5-min Rain = 0
KPAD 240900Z 34004KT 11/11 A2997 RMK A01 T01140106  RH  098%=      5-min Rain = 0
KPAD 240905Z 34004KT 11/11 A2997 RMK A01 T01130105  RH  098%=      5-min Rain = 0
KPAD 240910Z 35003KT 11/10 A2997 RMK A01 T01120104  RH  098%=      5-min Rain = 0
KPAD 240915Z 35004KT 11/10 A2997 RMK A01 T01120104  RH  098%=      5-min Rain = 0
KPAD 240920Z 35004KT 11/11 A2997 RMK A01 T01120105  RH  098%=      5-min Rain = 0
KPAD 240925Z 36004KT 11/10 A2997 RMK A01 T01120104  RH  098%=      5-min Rain = 0
KPAD 240930Z 36003KT 11/10 A2997 RMK A01 T01120104  RH  098%=      5-min Rain = 0
KPAD 240935Z 35003KT 11/10 A2997 RMK A01 T01120104  RH  098%=      5-min Rain = 0
KPAD 240940Z 36004KT 11/10 A2997 RMK A01 T01110104  RH  098%=      5-min Rain = 0
KPAD 240945Z 35004KT 11/10 A2997 RMK A01 T01110103  RH  098%=      5-min Rain = 0
KPAD 240950Z 35003KT 11/10 A2998 RMK A01 T01110103  RH  098%=      5-min Rain = 0
KPAD 240955Z 35004KT 11/10 A2997 RMK A01 T01120104  RH  098%=      5-min Rain = 0
KPAD 241000Z 35004KT 11/10 A2997 RMK A01 T01120104  RH  098%=      5-min Rain = 0
KPAD 241005Z 35004KT 11/10 A2997 RMK A01 T01110104  RH  098%=      5-min Rain = 0
KPAD 241010Z 35004KT 11/10 A2997 RMK A01 T01110103  RH  098%=      5-min Rain = 0
KPAD 241015Z 35004KT 11/10 A2997 RMK A01 T01100102  RH  098%=      5-min Rain = 0
KPAD 241020Z 34005KT 11/10 A2997 RMK A01 T01100102  RH  098%=      5-min Rain = 0
KPAD 241025Z 34005KT 11/10 A2997 RMK A01 T01100102  RH  098%=      5-min Rain = 0
KPAD 241030Z 34004KT 11/10 A2997 RMK A01 T01090101  RH  098%=      5-min Rain = 0
KPAD 241035Z 33004KT 11/10 A2997 RMK A01 T01080099  RH  097%=      5-min Rain = 0
KPAD 241040Z 32004KT 11/10 A2998 RMK A01 T01070098  RH  097%=      5-min Rain = 0
KPAD 241045Z 32005KT 11/10 A2997 RMK A01 T01050096  RH  097%=      5-min Rain = 0
KPAD 241050Z 33006KT 10/09 A2997 RMK A01 T01040094  RH  097%=      5-min Rain = 0
KPAD 241055Z 33006KT 10/09 A2996 RMK A01 T01020093  RH  097%=      5-min Rain = 0
KPAD 241100Z 34006KT 10/09 A2996 RMK A01 T01010091  RH  097%=      5-min Rain = 0
KPAD 241105Z 33007KT 10/09 A2996 RMK A01 T01000090  RH  096%=      5-min Rain = 0
KPAD 241110Z 33006KT 10/09 A2996 RMK A01 T00990089  RH  096%=      5-min Rain = 0
KPAD 241115Z 33006KT 10/09 A2996 RMK A01 T00980088  RH  096%=      5-min Rain = 0
KPAD 241120Z 34006KT 10/09 A2996 RMK A01 T00980087  RH  096%=      5-min Rain = 0
KPAD 241125Z 34005KT 10/09 A2996 RMK A01 T00970086  RH  096%=      5-min Rain = 0
KPAD 241130Z 33006KT 10/09 A2996 RMK A01 T00960085  RH  096%=      5-min Rain = 0
KPAD 241135Z 32006KT 10/09 A2996 RMK A01 T00950085  RH  096%=      5-min Rain = 0
KPAD 241140Z 32005KT 10/08 A2996 RMK A01 T00950084  RH  096%=      5-min Rain = 0
KPAD 241145Z 32005KT 10/08 A2996 RMK A01 T00950084  RH  096%=      5-min Rain = 0
KPAD 241150Z 31005KT 10/08 A2997 RMK A01 T00950084  RH  095%=      5-min Rain = 0
KPAD 241155Z 31006KT 10/08 A2997 RMK A01 T00960083  RH  095%=      5-min Rain = 0
KPAD 241200Z 32005KT 10/08 A2997 RMK A01 T00950082  RH  094%=      5-min Rain = 0
KPAD 241205Z 32005KT 10/08 A2997 RMK A01 T00950082  RH  094%=      5-min Rain = 0
KPAD 241210Z 32006KT 09/08 A2997 RMK A01 T00940081  RH  094%=      5-min Rain = 0
KPAD 241215Z 33005KT 09/08 A2997 RMK A01 T00940080  RH  094%=      5-min Rain = 0
KPAD 241220Z 33006KT 09/08 A2997 RMK A01 T00940080  RH  094%=      5-min Rain = 0
KPAD 241225Z 33005KT 09/08 A2997 RMK A01 T00930079  RH  094%=      5-min Rain = 0
KPAD 241230Z 32005KT 09/08 A2997 RMK A01 T00930079  RH  093%=      5-min Rain = 0
KPAD 241235Z 31005KT 09/08 A2997 RMK A01 T00930079  RH  094%=      5-min Rain = 0
KPAD 241240Z 31005KT 09/08 A2997 RMK A01 T00930079  RH  093%=      5-min Rain = 0
KPAD 241245Z 31006KT 09/08 A2997 RMK A01 T00930079  RH  093%=      5-min Rain = 0
KPAD 241250Z 32006KT 09/08 A2997 RMK A01 T00940079  RH  093%=      5-min Rain = 0
KPAD 241255Z 32006KT 09/08 A2996 RMK A01 T00940079  RH  093%=      5-min Rain = 0
KPAD 241300Z 33006KT 09/08 A2996 RMK A01 T00940078  RH  092%=      5-min Rain = 0
KPAD 241305Z 33006KT 09/08 A2996 RMK A01 T00940079  RH  092%=      5-min Rain = 0
KPAD 241310Z 33005KT 10/08 A2996 RMK A01 T00950080  RH  093%=      5-min Rain = 0
KPAD 241315Z 33006KT 10/08 A2996 RMK A01 T00960080  RH  092%=      5-min Rain = 0
KPAD 241320Z 33007KT 10/08 A2996 RMK A01 T00970080  RH  092%=      5-min Rain = 0
KPAD 241325Z 33007KT 10/08 A2996 RMK A01 T00980079  RH  091%=      5-min Rain = 0
KPAD 241330Z 33007KT 10/08 A2996 RMK A01 T00980079  RH  090%=      5-min Rain = 0
KPAD 241335Z 33008KT 10/08 A2997 RMK A01 T00990079  RH  090%=      5-min Rain = 0
KPAD 241340Z 32009KT 10/08 A2997 RMK A01 T01020081  RH  089%=      5-min Rain = 0
KPAD 241345Z 33009KT 11/08 A2997 RMK A01 T01050082  RH  088%=      5-min Rain = 0
KPAD 241350Z 33009KT 11/08 A2997 RMK A01 T01080082  RH  087%=      5-min Rain = 0
KPAD 241355Z 34010KT 11/08 A2996 RMK A01 T01080080  RH  085%=      5-min Rain = 0
KPAD 241400Z 34010KT 11/08 A2996 RMK A01 T01080078  RH  084%=      5-min Rain = 0
KPAD 241405Z 33010KT 11/08 A2996 RMK A01 T01080079  RH  085%=      5-min Rain = 0
KPAD 241410Z 33009KT 11/08 A2996 RMK A01 T01080080  RH  085%=      5-min Rain = 0
KPAD 241415Z 33009KT 11/08 A2996 RMK A01 T01100082  RH  085%=      5-min Rain = 0
KPAD 241420Z 34009KT 11/08 A2996 RMK A01 T01120083  RH  084%=      5-min Rain = 0
KPAD 241425Z 34008KT 12/08 A2996 RMK A01 T01150083  RH  083%=      5-min Rain = 0
KPAD 241430Z 35009KT 12/08 A2996 RMK A01 T01150080  RH  081%=      5-min Rain = 0
KPAD 241435Z 34009KT 11/08 A2996 RMK A01 T01140078  RH  080%=      5-min Rain = 0
KPAD 241440Z 34010KT 11/08 A2996 RMK A01 T01140077  RH  080%=      5-min Rain = 0
KPAD 241445Z 34009KT 12/08 A2996 RMK A01 T01160079  RH  080%=      5-min Rain = 0
KPAD 241450Z 35010KT 12/08 A2996 RMK A01 T01210080  RH  079%=      5-min Rain = 0
KPAD 241455Z 34009KT 12/08 A2995 RMK A01 T01220078  RH  076%=      5-min Rain = 0
KPAD 241500Z 35009KT 12/08 A2995 RMK A01 T01240079  RH  076%=      5-min Rain = 0
KPAD 241505Z 35009KT 13/08 A2995 RMK A01 T01280079  RH  074%=      5-min Rain = 0
KPAD 241510Z 35009KT 13/08 A2995 RMK A01 T01310081  RH  074%=      5-min Rain = 0
KPAD 241515Z 34010KT 13/08 A2995 RMK A01 T01330080  RH  072%=      5-min Rain = 0
KPAD 241520Z 35010KT 14/09 A2995 RMK A01 T01380085  RH  072%=      5-min Rain = 0
KPAD 241525Z 35009KT 14/09 A2996 RMK A01 T01410085  RH  071%=      5-min Rain = 0
KPAD 241530Z 35009KT 14/09 A2996 RMK A01 T01430086  RH  071%=      5-min Rain = 0
KPAD 241535Z 35009KT 15/09 A2996 RMK A01 T01470087  RH  070%=      5-min Rain = 0
KPAD 241540Z 34010KT 15/08 A2997 RMK A01 T01460083  RH  068%=      5-min Rain = 0
KPAD 241545Z 33009KT 15/08 A2997 RMK A01 T01450082  RH  068%=      5-min Rain = 0
KPAD 241550Z 34009KT 15/08 A2997 RMK A01 T01460084  RH  068%=      5-min Rain = 0
KPAD 241555Z 34009KT 15/09 A2997 RMK A01 T01500086  RH  067%=      5-min Rain = 0
KPAD 241600Z 34008KT 15/08 A2998 RMK A01 T01500083  RH  066%=      5-min Rain = 0
KPAD 241605Z 36006KT 15/08 A2998 RMK A01 T01510084  RH  066%=      5-min Rain = 0
KPAD 241610Z 36007KT 16/08 A2999 RMK A01 T01550084  RH  064%=      5-min Rain = 0
KPAD 241615Z 36006KT 16/08 A2999 RMK A01 T01570082  RH  063%=      5-min Rain = 0
KPAD 241620Z 35006KT 16/09 A2998 RMK A01 T01580085  RH  063%=      5-min Rain = 0
KPAD 241625Z 35005KT 16/08 A2998 RMK A01 T01590082  RH  062%=      5-min Rain = 0
KPAD 241630Z 35008KT 16/08 A2998 RMK A01 T01600080  RH  061%=      5-min Rain = 0
KPAD 241635Z 34009KT 16/08 A2997 RMK A01 T01600083  RH  062%=      5-min Rain = 0
KPAD 241640Z 35009KT 16/09 A2997 RMK A01 T01630088  RH  063%=      5-min Rain = 0
KPAD 241645Z 36009KT 17/09 A2996 RMK A01 T01650088  RH  062%=      5-min Rain = 0
KPAD 241650Z 01010KT 17/09 A2996 RMK A01 T01670088  RH  061%=      5-min Rain = 0
KPAD 241655Z 36009KT 17/09 A2996 RMK A01 T01650086  RH  061%=      5-min Rain = 0
KPAD 241700Z 01010KT 17/09 A2996 RMK A01 T01670085  RH  060%=      5-min Rain = 0
KPAD 241705Z 01011KT 17/09 A2995 RMK A01 T01670088  RH  062%=      5-min Rain = 0
KPAD 241710Z 35010KT 17/09 A2994 RMK A01 T01690087  RH  060%=      5-min Rain = 0
KPAD 241715Z 35012KT 17/09 A2994 RMK A01 T01710088  RH  060%=      5-min Rain = 0
KPAD 241720Z 36010KT 17/09 A2994 RMK A01 T01710089  RH  060%=      5-min Rain = 0
KPAD 241725Z 01012G17KT 17/09 A2994 RMK A01 T01730089  RH  060%=      5-min Rain = 0
KPAD 241730Z 36012KT 17/09 A2993 RMK A01 T01740089  RH  059%=      5-min Rain = 0
KPAD 241735Z 35012KT 18/09 A2993 RMK A01 T01750092  RH  060%=      5-min Rain = 0
KPAD 241740Z 35011KT 18/09 A2993 RMK A01 T01780090  RH  058%=      5-min Rain = 0
KPAD 241745Z 36008G13KT 18/09 A2993 RMK A01 T01770089  RH  058%=      5-min Rain = 0
KPAD 241750Z 35008KT 18/09 A2994 RMK A01 T01780087  RH  057%=      5-min Rain = 0
KPAD 241755Z 35009KT 18/09 A2994 RMK A01 T01770088  RH  058%=      5-min Rain = 0
KPAD 241800Z 35008KT 18/09 A2993 RMK A01 T01780087  RH  057%=      5-min Rain = 0
KPAD 241805Z 01009KT 18/09 A2993 RMK A01 T01810089  RH  057%=      5-min Rain = 0
KPAD 241810Z 36007KT 18/09 A2993 RMK A01 T01810086  RH  056%=      5-min Rain = 0
KPAD 241815Z 35007G13KT 18/09 A2993 RMK A01 T01790088  RH  057%=      5-min Rain = 0
KPAD 241820Z 01006KT 18/09 A2994 RMK A01 T01800087  RH  056%=      5-min Rain = 0
KPAD 241825Z 02005KT 18/09 A2994 RMK A01 T01790086  RH  056%=      5-min Rain = 0
KPAD 241830Z 04003KT 18/08 A2994 RMK A01 T01780082  RH  055%=      5-min Rain = 0
KPAD 241835Z 05004KT 18/09 A2994 RMK A01 T01780086  RH  056%=      5-min Rain = 0
KPAD 241840Z 03005G10KT 18/09 A2994 RMK A01 T01800086  RH  056%=      5-min Rain = 0
KPAD 241845Z 04003KT 18/08 A2994 RMK A01 T01790084  RH  055%=      5-min Rain = 0
KPAD 241850Z 07003KT 18/08 A2994 RMK A01 T01780082  RH  055%=      5-min Rain = 0
KPAD 241855Z 07001KT 18/08 A2994 RMK A01 T01780082  RH  055%=      5-min Rain = 0
KPAD 241900Z 12004KT 18/09 A2994 RMK A01 T01810089  RH  057%=      5-min Rain = 0
KPAD 241905Z 12005KT 18/09 A2993 RMK A01 T01820091  RH  057%=      5-min Rain = 0
KPAD 241910Z 14005KT 18/09 A2993 RMK A01 T01820091  RH  057%=      5-min Rain = 0
KPAD 241915Z 13005KT 18/09 A2992 RMK A01 T01810089  RH  056%=      5-min Rain = 0
KPAD 241920Z 13005KT 18/09 A2992 RMK A01 T01790089  RH  057%=      5-min Rain = 0
KPAD 241925Z 11004KT 18/09 A2992 RMK A01 T01770087  RH  057%=      5-min Rain = 0
KPAD 241930Z 09004KT 18/09 A2992 RMK A01 T01800089  RH  057%=      5-min Rain = 0
KPAD 241935Z 12003KT 18/09 A2991 RMK A01 T01790086  RH  056%=      5-min Rain = 0
KPAD 241940Z 11004KT 18/09 A2992 RMK A01 T01790088  RH  057%=      5-min Rain = 0
KPAD 241945Z 16004KT 18/09 A2992 RMK A01 T01820087  RH  056%=      5-min Rain = 0
KPAD 241950Z 19002KT 18/08 A2991 RMK A01 T01800084  RH  055%=      5-min Rain = 0
KPAD 241955Z 26002KT 18/09 A2991 RMK A01 T01780085  RH  056%=      5-min Rain = 0
KPAD 242000Z 13003KT 18/09 A2991 RMK A01 T01810090  RH  057%=      5-min Rain = 0
KPAD 242005Z 12004KT 18/09 A2991 RMK A01 T01820089  RH  056%=      5-min Rain = 0
KPAD 242010Z 14004KT 18/09 A2991 RMK A01 T01820092  RH  057%=      5-min Rain = 0
KPAD 242015Z 15005KT 19/09 A2991 RMK A01 T01860093  RH  056%=      5-min Rain = 0
KPAD 242020Z 15006KT 19/09 A2991 RMK A01 T01860092  RH  056%=      5-min Rain = 0
KPAD 242025Z 14005KT 19/09 A2991 RMK A01 T01860092  RH  056%=      5-min Rain = 0
KPAD 242030Z 15005KT 19/09 A2991 RMK A01 T01870094  RH  056%=      5-min Rain = 0
KPAD 242035Z 16005KT 19/10 A2991 RMK A01 T01890095  RH  056%=      5-min Rain = 0
KPAD 242040Z 18005KT 19/09 A2991 RMK A01 T01890093  RH  055%=      5-min Rain = 0
KPAD 242045Z 17004G9KT 19/09 A2991 RMK A01 T01870092  RH  056%=      5-min Rain = 0
KPAD 242050Z 15004KT 19/09 A299 RMK A01 T01870094  RH  056%=      5-min Rain = 0
KPAD 242055Z 15005KT 19/10 A299 RMK A01 T01870096  RH  057%=      5-min Rain = 0
KPAD 242100Z 17005KT 19/10 A299 RMK A01 T01880096  RH  057%=      5-min Rain = 0
KPAD 242105Z 17006KT 19/10 A299 RMK A01 T01870095  RH  057%=      5-min Rain = 0
KPAD 242110Z 16005KT 19/10 A299 RMK A01 T01860095  RH  057%=      5-min Rain = 0
KPAD 242115Z 15007KT 19/10 A299 RMK A01 T01870095  RH  057%=      5-min Rain = 0
KPAD 242120Z 16008KT 19/10 A299 RMK A01 T01870097  RH  058%=      5-min Rain = 0
KPAD 242125Z 17007KT 19/10 A299 RMK A01 T01860097  RH  058%=      5-min Rain = 0
KPAD 242130Z 16007KT 19/10 A299 RMK A01 T01870095  RH  057%=      5-min Rain = 0
KPAD 242135Z 16008KT 19/09 A299 RMK A01 T01880094  RH  056%=      5-min Rain = 0
KPAD 242140Z 16008KT 19/10 A2989 RMK A01 T01880096  RH  057%=      5-min Rain = 0
KPAD 242145Z 17010KT 19/10 A2989 RMK A01 T01910101  RH  058%=      5-min Rain = 0
KPAD 242150Z 17010KT 20/10 A2989 RMK A01 T01950104  RH  058%=      5-min Rain = 0
KPAD 242155Z 17009G15KT 20/10 A2989 RMK A01 T01960103  RH  057%=      5-min Rain = 0
KPAD 242200Z 16008KT 19/10 A2988 RMK A01 T01940102  RH  057%=      5-min Rain = 0
KPAD 242205Z 17008KT 19/10 A2988 RMK A01 T01930101  RH  057%=      5-min Rain = 0
KPAD 242210Z 17009KT 19/10 A2988 RMK A01 T01900099  RH  057%=      5-min Rain = 0
KPAD 242215Z 18007KT 19/10 A2988 RMK A01 T01910099  RH  057%=      5-min Rain = 0
KPAD 242220Z 19007KT 19/10 A2987 RMK A01 T01940101  RH  057%=      5-min Rain = 0
KPAD 242225Z 18007KT 19/10 A2987 RMK A01 T01930099  RH  056%=      5-min Rain = 0
KPAD 242230Z 18005KT 19/10 A2986 RMK A01 T01930098  RH  056%=      5-min Rain = 0
KPAD 242235Z 16006KT 19/10 A2986 RMK A01 T01930098  RH  056%=      5-min Rain = 0
KPAD 242240Z 18006KT 19/10 A2986 RMK A01 T01920097  RH  056%=      5-min Rain = 0
KPAD 242245Z 18006KT 19/10 A2986 RMK A01 T01890101  RH  059%=      5-min Rain = 0
KPAD 242250Z 18005KT 19/10 A2986 RMK A01 T01930104  RH  058%=      5-min Rain = 0
KPAD 242255Z 17004KT 19/10 A2986 RMK A01 T01940102  RH  057%=      5-min Rain = 0
KPAD 242300Z 16004KT 20/10 A2986 RMK A01 T01980103  RH  056%=      5-min Rain = 0
KPAD 242305Z 17005KT 20/11 A2986 RMK A01 T01990105  RH  057%=      5-min Rain = 0
KPAD 242310Z 19005KT 20/10 A2986 RMK A01 T01970103  RH  057%=      5-min Rain = 0
KPAD 242315Z 18004KT 19/10 A2985 RMK A01 T01940104  RH  058%=      5-min Rain = 0
KPAD 242320Z 15005KT 20/11 A2985 RMK A01 T01960108  RH  059%=      5-min Rain = 0
KPAD 242325Z 19004KT 20/11 A2985 RMK A01 T01950108  RH  059%=      5-min Rain = 0
KPAD 242330Z 18006KT 19/11 A2985 RMK A01 T01930110  RH  060%=      5-min Rain = 0
KPAD 242335Z 17006KT 19/11 A2985 RMK A01 T01900108  RH  061%=      5-min Rain = 0
KPAD 242340Z 17006KT 19/11 A2984 RMK A01 T01870107  RH  062%=      5-min Rain = 0
KPAD 242345Z 18006KT 18/11 A2984 RMK A01 T01840110  RH  064%=      5-min Rain = 0
KPAD 242350Z 18006KT 18/11 A2984 RMK A01 T01810110  RH  065%=      5-min Rain = 0
KPAD 242355Z 17006KT 18/11 A2984 RMK A01 T01800112  RH  067%=      5-min Rain = 0
KPAD 250000Z 17006KT 18/11 A2984 RMK A01 T01790111  RH  067%=      5-min Rain = 0
KPAD 250005Z 17006KT 18/11 A2984 RMK A01 T01770111  RH  067%=      5-min Rain = 0
KPAD 250010Z 17006KT 18/11 A2984 RMK A01 T01770112  RH  068%=      5-min Rain = 0
KPAD 250015Z 17006KT 18/11 A2984 RMK A01 T01760113  RH  069%=      5-min Rain = 0
KPAD 250020Z 16007KT 18/11 A2984 RMK A01 T01760113  RH  069%=      5-min Rain = 0
KPAD 250025Z 17006KT 18/11 A2984 RMK A01 T01770112  RH  068%=      5-min Rain = 0
KPAD 250030Z 17006KT 18/11 A2984 RMK A01 T01750114  RH  069%=      5-min Rain = 0
KPAD 250035Z 17006KT 18/11 A2984 RMK A01 T01750113  RH  069%=      5-min Rain = 0
KPAD 250040Z 17006KT 18/11 A2984 RMK A01 T01750114  RH  070%=      5-min Rain = 0
KPAD 250045Z 17006KT 18/12 A2984 RMK A01 T01750116  RH  071%=      5-min Rain = 0
KPAD 250050Z 17007KT 18/11 A2984 RMK A01 T01750114  RH  070%=      5-min Rain = 0
KPAD 250055Z 16007KT 17/11 A2984 RMK A01 T01720112  RH  070%=      5-min Rain = 0
KPAD 250100Z 16006KT 17/11 A2984 RMK A01 T01700112  RH  071%=      5-min Rain = 0
KPAD 250105Z 17005KT 17/12 A2984 RMK A01 T01690115  RH  073%=      5-min Rain = 0
KPAD 250110Z 17006KT 17/12 A2984 RMK A01 T01670115  RH  074%=      5-min Rain = 0
KPAD 250115Z 17006KT 17/12 A2984 RMK A01 T01650116  RH  076%=      5-min Rain = 0
KPAD 250120Z 17005KT 16/12 A2984 RMK A01 T01620117  RH  077%=      5-min Rain = 0
KPAD 250125Z 17005KT 16/12 A2984 RMK A01 T01590117  RH  079%=      5-min Rain = 0
KPAD 250130Z 17005KT 16/12 A2984 RMK A01 T01570117  RH  080%=      5-min Rain = 0
KPAD 250135Z 17005KT 16/12 A2984 RMK A01 T01550118  RH  081%=      5-min Rain = 0
KPAD 250140Z 17005KT 15/12 A2984 RMK A01 T01540118  RH  082%=      5-min Rain = 0
KPAD 250145Z 18005KT 15/12 A2984 RMK A01 T01520118  RH  083%=      5-min Rain = 0
KPAD 250150Z 18004KT 15/12 A2984 RMK A01 T01490117  RH  084%=      5-min Rain = 0
KPAD 250155Z 18004KT 15/11 A2985 RMK A01 T01450113  RH  084%=      5-min Rain = 0
KPAD 250200Z 18005KT 14/11 A2985 RMK A01 T01400110  RH  085%=      5-min Rain = 0
KPAD 250205Z 18005KT 14/11 A2985 RMK A01 T01390111  RH  086%=      5-min Rain = 0
KPAD 250210Z 18006KT 14/11 A2985 RMK A01 T01400113  RH  087%=      5-min Rain = 0
KPAD 250215Z 18005KT 14/11 A2986 RMK A01 T01410114  RH  087%=      5-min Rain = 0
KPAD 250220Z 18005KT 14/11 A2986 RMK A01 T01400114  RH  087%=      5-min Rain = 0
KPAD 250225Z 18006KT 14/11 A2986 RMK A01 T01390114  RH  088%=      5-min Rain = 0
KPAD 250230Z 18005KT 14/12 A2986 RMK A01 T01400116  RH  088%=      5-min Rain = 0
KPAD 250235Z 19007KT 14/11 A2986 RMK A01 T01380112  RH  088%=      5-min Rain = 0
KPAD 250240Z 20007KT 13/11 A2986 RMK A01 T01340110  RH  089%=      5-min Rain = 0
KPAD 250245Z 20007KT 13/11 A2986 RMK A01 T01310110  RH  090%=      5-min Rain = 0
KPAD 250250Z 20007KT 13/11 A2986 RMK A01 T01300110  RH  091%=      5-min Rain = 0
KPAD 250255Z 20008KT 13/11 A2985 RMK A01 T01320113  RH  092%=      5-min Rain = 0
KPAD 250300Z 20008KT 13/11 A2985 RMK A01 T01330114  RH  092%=      5-min Rain = 0
KPAD 250305Z 20009KT 13/12 A2985 RMK A01 T01340115  RH  091%=      5-min Rain = 0
KPAD 250310Z 21009KT 14/12 A2985 RMK A01 T01350115  RH  091%=      5-min Rain = 0
KPAD 250315Z 21009KT 14/12 A2986 RMK A01 T01350115  RH  091%=      5-min Rain = 0
KPAD 250320Z 21009KT 14/12 A2986 RMK A01 T01350115  RH  091%=      5-min Rain = 0
KPAD 250325Z 21009KT 14/12 A2986 RMK A01 T01350115  RH  091%=      5-min Rain = 0
KPAD 250330Z 21009KT 14/12 A2986 RMK A01 T01350115  RH  091%=      5-min Rain = 0
KPAD 250335Z 21009KT 13/11 A2986 RMK A01 T01340114  RH  091%=      5-min Rain = 0
KPAD 250340Z 21009KT 13/11 A2986 RMK A01 T01330114  RH  092%=      5-min Rain = 0
KPAD 250345Z 20009KT 13/11 A2986 RMK A01 T01320114  RH  092%=      5-min Rain = 0
KPAD 250350Z 20009KT 13/11 A2986 RMK A01 T01320114  RH  092%=      5-min Rain = 0
KPAD 250355Z 20009KT 13/11 A2986 RMK A01 T01310113  RH  092%=      5-min Rain = 0
KPAD 250400Z 21008KT 13/11 A2986 RMK A01 T01300113  RH  093%=      5-min Rain = 0
KPAD 250405Z 21009KT 13/11 A2986 RMK A01 T01300114  RH  093%=      5-min Rain = 0
KPAD 250410Z 21009KT 13/11 A2986 RMK A01 T01300114  RH  093%=      5-min Rain = 0
KPAD 250415Z 20009KT 13/11 A2986 RMK A01 T01300114  RH  093%=      5-min Rain = 0
KPAD 250420Z 20008KT 13/11 A2986 RMK A01 T01280112  RH  093%=      5-min Rain = 0
KPAD 250425Z 20008KT 13/11 A2986 RMK A01 T01260111  RH  093%=      5-min Rain = 0
KPAD 250430Z 20007KT 12/11 A2986 RMK A01 T01240109  RH  093%=      5-min Rain = 0
KPAD 250435Z 19007KT 12/11 A2986 RMK A01 T01230108  RH  094%=      5-min Rain = 0
KPAD 250440Z 20008KT 12/11 A2986 RMK A01 T01220107  RH  094%=      5-min Rain = 0
KPAD 250445Z 20007KT 12/11 A2986 RMK A01 T01210107  RH  094%=      5-min Rain = 0
KPAD 250450Z 20008KT 12/11 A2986 RMK A01 T01210107  RH  095%=      5-min Rain = 0
KPAD 250455Z 19007KT 12/11 A2986 RMK A01 T01200107  RH  095%=      5-min Rain = 0

Page generated in 0.013 seconds.